createdAt,value
2023-03-26T00:02:15.025Z,100683.99
2023-03-26T00:04:43.509Z,100676.83
2023-03-26T00:07:13.013Z,100674.34
2023-03-26T00:09:41.381Z,100671.60
2023-03-26T00:12:12.112Z,100667.17
2023-03-26T00:14:41.130Z,100668.95
2023-03-26T00:17:09.379Z,100668.91
2023-03-26T00:19:44.313Z,100667.87
2023-03-26T00:22:14.631Z,100667.84
2023-03-26T00:24:46.298Z,100662.60
2023-03-26T00:27:20.916Z,100663.11
2023-03-26T00:29:50.006Z,100665.88
2023-03-26T00:32:18.393Z,100667.44
2023-03-26T00:34:48.004Z,100661.05
2023-03-26T00:37:16.617Z,100656.40
2023-03-26T00:39:49.471Z,100655.89
2023-03-26T00:42:19.186Z,100651.69
2023-03-26T00:44:47.755Z,100656.87
2023-03-26T00:47:17.165Z,100657.15
2023-03-26T00:49:47.084Z,100648.44
2023-03-26T00:52:20.468Z,100648.60
2023-03-26T00:54:52.347Z,100656.43
2023-03-26T00:57:34.597Z,100651.23
2023-03-26T01:00:10.525Z,100647.30
2023-03-26T01:02:41.713Z,100639.91
2023-03-26T01:05:35.710Z,100634.52
2023-03-26T01:08:27.453Z,100629.97
2023-03-26T01:11:03.031Z,100621.94
2023-03-26T01:13:36.358Z,100614.75
2023-03-26T01:16:10.019Z,100610.40
2023-03-26T01:18:41.337Z,100607.79
2023-03-26T01:21:14.115Z,100602.75
2023-03-26T01:23:49.242Z,100601.02
2023-03-26T01:26:57.662Z,100607.33
2023-03-26T01:29:45.405Z,100605.81
2023-03-26T01:32:32.804Z,100601.48
2023-03-26T01:35:14.401Z,100598.48
2023-03-26T01:38:01.827Z,100599.48
2023-03-26T01:40:43.290Z,100604.17
2023-03-26T01:43:30.735Z,100607.52
2023-03-26T01:46:05.715Z,100614.39
2023-03-26T01:48:36.524Z,100616.80
2023-03-26T01:51:06.112Z,100606.34
2023-03-26T01:53:35.827Z,100603.18
2023-03-26T01:56:20.685Z,100610.48
2023-03-26T01:58:55.516Z,100606.76
2023-03-26T02:01:47.401Z,100611.75
2023-03-26T02:04:26.782Z,100610.48
2023-03-26T02:07:02.382Z,100607.73
2023-03-26T02:09:32.477Z,100606.73
2023-03-26T02:12:01.240Z,100602.94
2023-03-26T02:14:30.938Z,100600.14
2023-03-26T02:17:00.339Z,100599.22
2023-03-26T02:19:30.882Z,100597.96
2023-03-26T02:22:00.170Z,100595.45
2023-03-26T02:24:29.781Z,100594.54
2023-03-26T02:27:02.473Z,100591.55
2023-03-26T02:29:31.277Z,100596.25
2023-03-26T02:32:13.275Z,100601.14
2023-03-26T02:34:41.942Z,100605.75
2023-03-26T02:37:10.413Z,100602.41
2023-03-26T02:39:39.803Z,100597.66
2023-03-26T02:42:18.013Z,100599.23
2023-03-26T02:44:49.361Z,100598.51
2023-03-26T02:47:21.250Z,100598.67
2023-03-26T02:49:56.256Z,100595.71
2023-03-26T02:52:54.263Z,100599.36
2023-03-26T02:55:23.730Z,100599.23
2023-03-26T02:57:54.779Z,100598.20
2023-03-26T03:00:29.806Z,100597.68
2023-03-26T03:02:58.430Z,100604.11
2023-03-26T03:05:33.501Z,100604.61
2023-03-26T03:08:21.774Z,100605.42
2023-03-26T03:11:16.061Z,100611.77
2023-03-26T03:13:47.064Z,100613.98
2023-03-26T03:16:27.853Z,100606.25
2023-03-26T03:18:58.322Z,100602.90
2023-03-26T03:21:38.687Z,100595.05
2023-03-26T03:24:10.304Z,100593.66
2023-03-26T03:26:45.951Z,100586.98
2023-03-26T03:29:28.570Z,100577.10
2023-03-26T03:31:57.456Z,100573.73
2023-03-26T03:34:46.006Z,100574.89
2023-03-26T03:37:14.488Z,100575.54
2023-03-26T03:39:46.965Z,100567.71
2023-03-26T03:42:20.770Z,100563.73
2023-03-26T03:44:50.683Z,100563.89
2023-03-26T03:47:51.561Z,100567.37
2023-03-26T03:50:25.123Z,100568.65
2023-03-26T03:53:05.996Z,100564.19
2023-03-26T03:55:38.469Z,100568.02
2023-03-26T03:58:09.413Z,100569.26
2023-03-26T04:00:38.712Z,100566.99
2023-03-26T04:03:33.423Z,100571.14
2023-03-26T04:06:07.150Z,100574.07
2023-03-26T04:08:37.026Z,100572.66
2023-03-26T04:11:07.053Z,100573.71
2023-03-26T04:14:04.429Z,100571.41
2023-03-26T04:17:02.570Z,100576.30
2023-03-26T04:19:33.298Z,100573.16
2023-03-26T04:22:02.724Z,100570.70
2023-03-26T04:24:40.503Z,100570.17
2023-03-26T04:27:31.742Z,100571.03
2023-03-26T04:30:22.153Z,100575.20
2023-03-26T04:33:04.291Z,100573.85
2023-03-26T04:38:07.109Z,100577.81
2023-03-26T04:40:42.456Z,100581.14
2023-03-26T04:43:23.742Z,100584.27
2023-03-26T04:49:31.869Z,100586.60
2023-03-26T04:52:01.592Z,100589.24
2023-03-26T04:54:59.233Z,100594.95
2023-03-26T04:57:39.924Z,100599.08
2023-03-26T05:00:15.489Z,100599.36
2023-03-26T05:02:54.308Z,100595.68
2023-03-26T05:05:23.269Z,100592.13
2023-03-26T05:07:51.943Z,100591.39
2023-03-26T05:10:27.082Z,100597.79
2023-03-26T05:13:05.802Z,100600.55
2023-03-26T05:15:39.808Z,100607.56
2023-03-26T05:18:17.711Z,100612.44
2023-03-26T05:20:50.082Z,100614.36
2023-03-26T05:23:23.890Z,100619.36
2023-03-26T05:25:58.510Z,100614.52
2023-03-26T05:28:28.528Z,100613.48
2023-03-26T05:31:07.302Z,100612.39
2023-03-26T05:33:39.948Z,100607.34
2023-03-26T05:36:19.383Z,100602.96
2023-03-26T05:38:52.581Z,100598.74
2023-03-26T05:41:41.223Z,100592.79
2023-03-26T05:44:10.918Z,100584.58
2023-03-26T05:46:39.302Z,100583.34
2023-03-26T05:49:13.923Z,100574.21
2023-03-26T05:51:42.307Z,100571.21
2023-03-26T05:54:31.674Z,100570.77
2023-03-26T05:57:24.317Z,100571.91
2023-03-26T06:00:18.700Z,100575.97
2023-03-26T06:02:48.903Z,100574.50
2023-03-26T06:05:43.338Z,100572.80
2023-03-26T06:08:22.242Z,100585.02
2023-03-26T06:11:00.883Z,100590.92
2023-03-26T06:13:34.156Z,100593.95
2023-03-26T06:16:02.901Z,100592.84
2023-03-26T06:18:41.405Z,100599.11
2023-03-26T06:21:33.996Z,100596.84
2023-03-26T06:24:16.618Z,100597.55
2023-03-26T06:27:03.931Z,100604.70
2023-03-26T06:30:05.959Z,100611.89
2023-03-26T06:32:54.795Z,100610.67
2023-03-26T06:35:29.696Z,100609.45
2023-03-26T06:37:58.990Z,100608.05
2023-03-26T06:40:31.512Z,100607.02
2023-03-26T06:43:39.376Z,100607.02
2023-03-26T06:46:26.094Z,100609.99
2023-03-26T06:49:21.283Z,100613.31
2023-03-26T06:52:19.268Z,100613.17
2023-03-26T06:55:03.494Z,100614.90
2023-03-26T06:57:51.584Z,100610.85
2023-03-26T07:00:42.594Z,100612.48
2023-03-26T07:03:30.393Z,100604.52
2023-03-26T07:06:19.739Z,100595.70
2023-03-26T07:08:51.219Z,100597.39
2023-03-26T07:11:38.541Z,100596.46
2023-03-26T07:14:38.965Z,100591.85
2023-03-26T07:17:31.339Z,100593.47
2023-03-26T07:20:12.480Z,100595.95
2023-03-26T07:22:42.590Z,100594.96
2023-03-26T07:25:17.841Z,100598.66
2023-03-26T07:28:32.400Z,100594.68
2023-03-26T07:31:05.507Z,100594.34
2023-03-26T07:34:31.317Z,100587.63
2023-03-26T07:37:35.325Z,100587.61
2023-03-26T07:40:45.689Z,100588.67
2023-03-26T07:43:43.349Z,100584.76
2023-03-26T07:46:37.404Z,100583.63
2023-03-26T07:49:29.614Z,100589.86
2023-03-26T07:52:23.662Z,100596.44
2023-03-26T07:54:56.542Z,100592.67
2023-03-26T07:57:59.258Z,100594.96
2023-03-26T08:01:02.405Z,100595.93
2023-03-26T08:04:25.580Z,100596.55
2023-03-26T08:07:40.227Z,100596.80
2023-03-26T08:10:22.953Z,100592.94
2023-03-26T08:13:07.399Z,100595.50
2023-03-26T08:15:45.832Z,100600.15
2023-03-26T08:18:39.089Z,100597.90
2023-03-26T08:21:14.371Z,100593.90
2023-03-26T08:24:01.664Z,100592.33
2023-03-26T08:26:39.533Z,100592.84
2023-03-26T08:29:11.497Z,100592.12
2023-03-26T08:31:41.733Z,100595.95
2023-03-26T08:34:11.841Z,100596.64
2023-03-26T08:36:40.313Z,100596.61
2023-03-26T08:39:09.415Z,100595.59
2023-03-26T08:41:57.807Z,100597.46
2023-03-26T08:45:11.709Z,100597.46
2023-03-26T08:47:57.347Z,100597.97
2023-03-26T08:50:31.425Z,100597.80
2023-03-26T08:53:37.780Z,100601.33
2023-03-26T08:56:31.680Z,100600.73
2023-03-26T08:59:22.861Z,100595.58
2023-03-26T09:02:07.110Z,100594.42
2023-03-26T09:04:54.428Z,100598.66
2023-03-26T09:07:41.545Z,100601.67
2023-03-26T09:10:15.962Z,100599.48
2023-03-26T09:13:46.806Z,100592.59
2023-03-26T09:16:34.467Z,100590.38
2023-03-26T09:19:11.109Z,100586.41
2023-03-26T09:22:13.777Z,100586.41
2023-03-26T09:25:16.485Z,100594.00
2023-03-26T09:28:04.004Z,100600.34
2023-03-26T09:30:49.175Z,100599.59
2023-03-26T09:34:00.481Z,100594.84
2023-03-26T09:36:39.487Z,100599.70
2023-03-26T09:39:16.715Z,100593.44
2023-03-26T09:41:56.628Z,100585.17
2023-03-26T09:44:25.210Z,100587.38
2023-03-26T09:47:35.116Z,100592.55
2023-03-26T09:50:23.102Z,100596.98
2023-03-26T09:52:57.643Z,100601.44
2023-03-26T09:55:30.207Z,100602.58
2023-03-26T09:58:11.369Z,100606.45
2023-03-26T10:01:13.538Z,100609.18
2023-03-26T10:04:24.114Z,100611.67
2023-03-26T10:07:20.440Z,100614.77
2023-03-26T10:10:34.900Z,100621.81
2023-03-26T10:13:24.986Z,100621.96
2023-03-26T10:16:20.652Z,100621.69
2023-03-26T10:19:17.042Z,100617.75
2023-03-26T10:21:54.324Z,100613.58
2023-03-26T10:25:02.588Z,100610.45
2023-03-26T10:28:01.123Z,100601.16
2023-03-26T10:31:24.034Z,100595.70
2023-03-26T10:34:28.532Z,100588.55
2023-03-26T10:37:10.852Z,100581.36
2023-03-26T10:49:29.829Z,100562.61
2023-03-26T10:52:07.135Z,100561.75
2023-03-26T10:54:36.285Z,100560.89
2023-03-26T10:57:23.220Z,100559.70
2023-03-26T10:59:54.349Z,100550.99
2023-03-26T11:03:14.702Z,100546.35
2023-03-26T11:05:55.203Z,100538.49
2023-03-26T11:08:47.262Z,100531.27
2023-03-26T11:11:42.286Z,100528.27
2023-03-26T11:14:34.484Z,100527.33
2023-03-26T11:17:39.612Z,100520.98
2023-03-26T11:20:49.001Z,100516.02
2023-03-26T11:23:29.610Z,100507.84
2023-03-26T11:26:29.259Z,100508.00
2023-03-26T11:29:32.701Z,100504.95
2023-03-26T11:32:14.971Z,100503.63
2023-03-26T11:35:09.607Z,100506.71
2023-03-26T11:37:47.249Z,100500.20
2023-03-26T11:40:28.942Z,100498.39
2023-03-26T11:43:00.720Z,100497.53
2023-03-26T11:45:32.458Z,100502.80
2023-03-26T11:48:05.063Z,100506.44
2023-03-26T11:50:33.628Z,100507.25
2023-03-26T11:53:15.009Z,100499.47
2023-03-26T11:56:04.448Z,100497.66
2023-03-26T11:58:43.194Z,100495.21
2023-03-26T12:01:15.567Z,100492.01
2023-03-26T12:03:56.741Z,100491.67
2023-03-26T12:06:27.181Z,100496.52
2023-03-26T12:08:57.203Z,100498.70
2023-03-26T12:11:29.703Z,100497.70
2023-03-26T12:14:00.183Z,100499.10
2023-03-26T12:16:31.913Z,100498.84
2023-03-26T12:19:05.651Z,100493.13
2023-03-26T12:21:49.992Z,100492.64
2023-03-26T12:24:25.774Z,100486.63
2023-03-26T12:27:02.414Z,100489.81
2023-03-26T12:29:34.801Z,100494.27
2023-03-26T12:32:07.369Z,100501.02
2023-03-26T12:34:36.548Z,100503.04
2023-03-26T12:37:06.378Z,100496.77
2023-03-26T12:40:10.337Z,100500.36
2023-03-26T12:44:45.046Z,100494.57
2023-03-26T12:45:23.910Z,100492.36
2023-03-26T12:48:01.888Z,100492.33
2023-03-26T12:51:11.316Z,100491.52
2023-03-26T12:54:03.842Z,100492.08
2023-03-26T12:56:44.209Z,100495.67
2023-03-26T12:59:31.731Z,100492.45
2023-03-26T13:02:21.282Z,100489.08
2023-03-26T13:05:06.476Z,100482.70
2023-03-26T13:07:47.760Z,100484.33
2023-03-26T13:10:17.248Z,100484.66
2023-03-26T13:12:55.155Z,100485.02
2023-03-26T13:15:37.855Z,100486.63
2023-03-26T13:18:31.737Z,100485.09
2023-03-26T13:21:07.592Z,100487.44
2023-03-26T13:24:01.985Z,100491.77
2023-03-26T13:27:19.006Z,100491.22
2023-03-26T13:30:06.843Z,100490.30
2023-03-26T13:32:48.360Z,100489.67
2023-03-26T13:35:50.736Z,100482.50
2023-03-26T13:38:20.510Z,100484.59
2023-03-26T13:41:07.636Z,100484.16
2023-03-26T13:43:47.908Z,100488.80
2023-03-26T13:46:34.939Z,100493.04
2023-03-26T13:49:13.723Z,100495.20
2023-03-26T13:51:57.155Z,100503.41
2023-03-26T13:54:32.199Z,100505.84
2023-03-26T13:57:25.050Z,100500.23
2023-03-26T14:00:07.373Z,100500.55
2023-03-26T14:02:48.011Z,100499.12
2023-03-26T14:05:21.724Z,100496.63
2023-03-26T14:08:11.611Z,100493.45
2023-03-26T14:10:54.254Z,100493.70
2023-03-26T14:13:50.637Z,100488.23
2023-03-26T14:16:24.298Z,100494.57
2023-03-26T14:18:59.587Z,100493.44
2023-03-26T14:21:34.510Z,100493.21
2023-03-26T14:24:39.752Z,100498.39
2023-03-26T14:27:20.763Z,100503.15
2023-03-26T14:30:08.148Z,100503.24
2023-03-26T14:32:37.372Z,100503.67
2023-03-26T14:35:26.419Z,100500.28
2023-03-26T14:38:24.484Z,100502.67
2023-03-26T14:40:58.447Z,100499.61
2023-03-26T14:43:43.871Z,100502.68
2023-03-26T14:46:46.622Z,100501.56
2023-03-26T14:49:38.596Z,100500.42
2023-03-26T14:52:16.082Z,100504.89
2023-03-26T14:54:49.785Z,100502.91
2023-03-26T14:57:56.383Z,100503.55
2023-03-26T15:00:49.840Z,100504.52
2023-03-26T15:07:19.046Z,100509.15
2023-03-26T15:10:09.441Z,100510.02
2023-03-26T15:12:53.598Z,100512.41
2023-03-26T15:15:54.640Z,100509.71
2023-03-26T15:18:45.031Z,100512.45
2023-03-26T15:21:55.901Z,100513.27
2023-03-26T15:24:27.271Z,100511.98
2023-03-26T15:26:57.160Z,100511.63
2023-03-26T15:29:57.079Z,100516.84
2023-03-26T15:32:44.865Z,100517.55
2023-03-26T15:35:39.588Z,100524.36
2023-03-26T15:38:27.439Z,100530.28
2023-03-26T15:41:11.280Z,100533.26
2023-03-26T15:44:24.401Z,100534.48
2023-03-26T15:46:50.224Z,100536.45
2023-03-26T15:49:40.107Z,100540.66
2023-03-26T15:52:27.240Z,100543.65
2023-03-26T15:55:26.658Z,100543.67
2023-03-26T15:58:37.106Z,100539.72
2023-03-26T16:01:19.363Z,100540.98
2023-03-26T16:04:06.722Z,100542.94
2023-03-26T16:06:54.249Z,100547.67
2023-03-26T16:09:46.187Z,100550.84
2023-03-26T16:12:17.738Z,100555.74
2023-03-26T16:15:07.615Z,100557.04
2023-03-26T16:18:15.931Z,100559.91
2023-03-26T16:20:55.292Z,100569.80
2023-03-26T16:23:47.590Z,100569.54
2023-03-26T16:26:31.676Z,100567.84
2023-03-26T16:29:22.423Z,100574.64
2023-03-26T16:32:05.937Z,100574.98
2023-03-26T16:34:45.439Z,100581.13
2023-03-26T16:37:32.440Z,100584.59
2023-03-26T16:40:16.836Z,100588.40
2023-03-26T16:43:26.960Z,100591.73
2023-03-26T16:46:03.576Z,100601.90
2023-03-26T16:48:49.714Z,100604.92
2023-03-26T16:52:01.201Z,100612.27
2023-03-26T16:54:34.906Z,100616.11
2023-03-26T16:57:17.328Z,100613.66
2023-03-26T17:00:05.863Z,100615.81
2023-03-26T17:02:41.858Z,100618.44
2023-03-26T17:05:43.170Z,100620.75
2023-03-26T17:08:42.273Z,100627.41
2023-03-26T17:11:32.150Z,100636.39
2023-03-26T17:14:27.559Z,100641.32
2023-03-26T17:17:08.229Z,100643.48
2023-03-26T17:19:48.382Z,100639.36
2023-03-26T17:22:23.720Z,100643.77
2023-03-26T17:24:59.692Z,100644.87
2023-03-26T17:28:11.990Z,100648.23
2023-03-26T17:31:06.834Z,100651.98
2023-03-26T17:33:44.790Z,100648.94
2023-03-26T17:36:14.442Z,100652.33
2023-03-26T17:38:46.867Z,100658.83
2023-03-26T17:41:35.937Z,100660.06
2023-03-26T17:44:23.459Z,100663.27
2023-03-26T17:46:55.835Z,100664.17
2023-03-26T17:49:31.333Z,100663.14
2023-03-26T17:52:05.224Z,100662.27
2023-03-26T17:54:47.625Z,100659.16
2023-03-26T17:57:27.436Z,100662.91
2023-03-26T17:59:59.509Z,100661.77
2023-03-26T18:02:42.522Z,100663.29
2023-03-26T18:05:13.257Z,100667.06
2023-03-26T18:08:20.254Z,100664.05
2023-03-26T18:11:01.841Z,100664.84
2023-03-26T18:13:52.324Z,100662.33
2023-03-26T18:16:37.969Z,100662.80
2023-03-26T18:19:27.022Z,100664.64
2023-03-26T18:21:59.978Z,100667.20
2023-03-26T18:24:29.772Z,100670.10
2023-03-26T18:27:00.298Z,100671.92
2023-03-26T18:29:29.824Z,100675.73
2023-03-26T18:32:02.825Z,100677.41
2023-03-26T18:34:33.336Z,100681.88
2023-03-26T18:37:08.771Z,100682.16
2023-03-26T18:39:38.583Z,100679.48
2023-03-26T18:42:06.966Z,100686.23
2023-03-26T18:44:37.070Z,100689.15
2023-03-26T18:47:10.479Z,100686.14
2023-03-26T18:49:39.062Z,100686.45
2023-03-26T18:52:08.839Z,100684.80
2023-03-26T18:54:37.653Z,100684.41
2023-03-26T18:57:19.854Z,100686.64
2023-03-26T18:59:51.408Z,100686.41
2023-03-26T19:02:20.272Z,100686.70
2023-03-26T19:04:49.899Z,100687.18
2023-03-26T19:07:25.648Z,100692.52
2023-03-26T19:09:56.609Z,100698.75
2023-03-26T19:12:29.889Z,100698.34
2023-03-26T19:15:13.128Z,100698.27
2023-03-26T19:17:49.813Z,100696.84
2023-03-26T19:20:18.979Z,100695.27
2023-03-26T19:22:47.660Z,100692.08
2023-03-26T19:25:35.464Z,100689.97
2023-03-26T19:28:03.766Z,100691.20
2023-03-26T19:30:35.253Z,100695.66
2023-03-26T19:33:15.232Z,100694.57
2023-03-26T19:35:46.037Z,100693.67
2023-03-26T19:38:21.759Z,100691.36
2023-03-26T19:40:57.799Z,100693.77
2023-03-26T19:43:27.018Z,100690.92
2023-03-26T19:46:00.029Z,100691.02
2023-03-26T19:48:45.343Z,100686.73
2023-03-26T19:51:20.381Z,100685.63
2023-03-26T19:53:55.854Z,100688.30
2023-03-26T19:56:24.442Z,100687.16
2023-03-26T19:58:52.924Z,100688.48
2023-03-26T20:01:22.961Z,100687.01
2023-03-26T20:03:54.928Z,100687.76
2023-03-26T20:06:34.053Z,100685.88
2023-03-26T20:09:11.952Z,100680.74
2023-03-26T20:11:41.007Z,100686.20
2023-03-26T20:14:15.102Z,100690.16
2023-03-26T20:16:45.351Z,100698.06
2023-03-26T20:19:14.965Z,100693.94
2023-03-26T20:21:46.725Z,100689.65
2023-03-26T20:24:16.844Z,100690.61
2023-03-26T20:26:45.956Z,100692.27
2023-03-26T20:29:15.195Z,100696.54
2023-03-26T20:31:43.796Z,100698.21
2023-03-26T20:34:18.215Z,100698.48
2023-03-26T20:36:47.191Z,100700.73
2023-03-26T20:39:15.760Z,100701.78
2023-03-26T20:41:48.693Z,100703.35
2023-03-26T20:44:18.607Z,100699.20
2023-03-26T20:46:48.482Z,100696.95
2023-03-26T20:49:18.361Z,100696.41
2023-03-26T20:51:47.984Z,100697.44
2023-03-26T20:54:24.390Z,100698.11
2023-03-26T20:56:53.807Z,100700.31
2023-03-26T20:59:27.018Z,100708.60
2023-03-26T21:01:57.572Z,100706.58
2023-03-26T21:04:26.617Z,100709.78
2023-03-26T21:07:00.603Z,100710.73
2023-03-26T21:09:38.940Z,100713.42
2023-03-26T21:12:09.881Z,100710.20
2023-03-26T21:14:44.318Z,100712.70
2023-03-26T21:17:16.318Z,100716.13
2023-03-26T21:19:46.096Z,100718.70
2023-03-26T21:22:21.107Z,100718.04
2023-03-26T21:25:15.616Z,100714.77
2023-03-26T21:27:48.174Z,100713.26
2023-03-26T21:30:17.932Z,100711.26
2023-03-26T21:32:47.228Z,100720.09
2023-03-26T21:35:20.308Z,100723.87
2023-03-26T21:37:49.073Z,100732.48
2023-03-26T21:40:18.311Z,100733.65
2023-03-26T21:42:52.571Z,100737.38
2023-03-26T21:45:21.993Z,100736.06
2023-03-26T21:47:52.759Z,100740.14
2023-03-26T21:50:23.139Z,100737.07
2023-03-26T21:52:52.060Z,100733.44
2023-03-26T21:55:22.611Z,100732.09
2023-03-26T21:58:35.894Z,100728.94
2023-03-26T22:01:17.127Z,100731.48
2023-03-26T22:03:54.590Z,100735.31
2023-03-26T22:06:43.253Z,100737.60
2023-03-26T22:09:15.001Z,100735.45
2023-03-26T22:11:45.094Z,100736.41
2023-03-26T22:14:14.494Z,100741.58
2023-03-26T22:16:42.973Z,100744.14
2023-03-26T22:19:12.849Z,100743.73
2023-03-26T22:21:43.006Z,100732.40
2023-03-26T22:24:11.694Z,100727.98
2023-03-26T22:26:46.355Z,100725.48
2023-03-26T22:29:15.720Z,100731.65
2023-03-26T22:31:44.136Z,100736.06
2023-03-26T22:34:13.393Z,100739.40
2023-03-26T22:36:41.975Z,100738.40
2023-03-26T22:39:11.074Z,100745.59
2023-03-26T22:41:39.967Z,100749.70
2023-03-26T22:44:19.841Z,100756.23
2023-03-26T22:46:51.837Z,100755.89
2023-03-26T22:49:20.498Z,100761.92
2023-03-26T22:51:50.683Z,100759.79
2023-03-26T22:54:19.070Z,100759.20
2023-03-26T22:56:47.532Z,100759.67
2023-03-26T22:59:17.343Z,100756.27
2023-03-26T23:01:46.631Z,100761.20
2023-03-26T23:04:31.463Z,100761.64
2023-03-26T23:07:01.051Z,100758.95
2023-03-26T23:09:29.905Z,100760.20
2023-03-26T23:12:02.276Z,100758.01
2023-03-26T23:14:32.713Z,100754.25
2023-03-26T23:17:01.702Z,100750.31
2023-03-26T23:19:34.286Z,100744.12
2023-03-26T23:22:02.763Z,100749.72
2023-03-26T23:24:32.261Z,100750.83
2023-03-26T23:27:01.155Z,100746.75
2023-03-26T23:29:30.448Z,100745.41
2023-03-26T23:32:00.772Z,100737.80
2023-03-26T23:34:29.663Z,100732.27
2023-03-26T23:36:58.347Z,100730.73
2023-03-26T23:39:28.983Z,100732.51
2023-03-26T23:41:57.666Z,100729.55
2023-03-26T23:44:29.732Z,100730.11
2023-03-26T23:47:00.780Z,100734.02
2023-03-26T23:49:29.154Z,100733.91
2023-03-26T23:51:58.350Z,100737.93
2023-03-26T23:54:26.926Z,100742.12
2023-03-26T23:56:59.775Z,100746.02
2023-03-26T23:59:28.634Z,100745.91
